createdAt,value
2022-08-30T00:00:44.405Z,19.48
2022-08-30T00:03:18.295Z,25.30
2022-08-30T00:05:52.543Z,29.35
2022-08-30T00:08:27.724Z,36.20
2022-08-30T00:11:01.760Z,29.42
2022-08-30T00:13:36.757Z,21.00
2022-08-30T00:16:10.792Z,18.77
2022-08-30T00:18:44.460Z,20.35
2022-08-30T00:21:17.978Z,17.62
2022-08-30T00:23:51.199Z,13.65
2022-08-30T00:26:24.663Z,15.68
2022-08-30T00:28:59.056Z,19.87
2022-08-30T00:31:32.642Z,18.17
2022-08-30T00:34:06.752Z,19.07
2022-08-30T00:36:39.956Z,21.82
2022-08-30T00:39:13.588Z,16.02
2022-08-30T00:41:46.936Z,13.03
2022-08-30T00:44:20.226Z,18.95
2022-08-30T00:46:53.464Z,17.02
2022-08-30T00:49:27.404Z,18.55
2022-08-30T00:52:01.805Z,30.30
2022-08-30T00:54:38.195Z,17.37
2022-08-30T00:57:14.335Z,20.77
2022-08-30T00:59:50.380Z,20.62
2022-08-30T01:02:26.770Z,18.27
2022-08-30T01:05:02.003Z,20.97
2022-08-30T01:07:35.566Z,12.30
2022-08-30T01:10:11.780Z,20.32
2022-08-30T01:12:46.619Z,20.20
2022-08-30T01:15:19.924Z,15.80
2022-08-30T01:17:54.495Z,15.28
2022-08-30T01:23:17.035Z,14.73
2022-08-30T01:25:52.466Z,15.83
2022-08-30T01:28:29.260Z,15.85
2022-08-30T01:31:02.693Z,15.75
2022-08-30T01:33:37.612Z,18.98
2022-08-30T01:36:14.373Z,17.82
2022-08-30T01:38:50.087Z,13.45
2022-08-30T01:41:26.078Z,24.25
2022-08-30T01:44:03.627Z,18.98
2022-08-30T01:46:39.706Z,18.42
2022-08-30T01:49:16.359Z,15.15
2022-08-30T01:51:49.654Z,21.70
2022-08-30T01:54:27.262Z,19.23
2022-08-30T01:57:00.299Z,19.10
2022-08-30T01:59:33.708Z,19.02
2022-08-30T02:02:07.730Z,20.23
2022-08-30T02:04:40.942Z,18.00
2022-08-30T02:07:14.234Z,20.92
2022-08-30T02:09:50.192Z,18.92
2022-08-30T02:12:24.967Z,17.60
2022-08-30T02:14:58.315Z,17.07
2022-08-30T02:17:33.263Z,14.35
2022-08-30T02:20:08.906Z,18.35
2022-08-30T02:22:47.577Z,17.70
2022-08-30T02:25:21.173Z,15.65
2022-08-30T02:27:52.655Z,12.45
2022-08-30T02:30:26.109Z,16.32
2022-08-30T02:32:59.383Z,17.62
2022-08-30T02:35:33.647Z,18.55
2022-08-30T02:38:07.180Z,17.10
2022-08-30T02:40:44.766Z,17.45
2022-08-30T02:43:18.547Z,15.28
2022-08-30T02:45:52.089Z,17.12
2022-08-30T02:48:25.657Z,17.37
2022-08-30T02:51:00.494Z,21.48
2022-08-30T02:53:34.075Z,18.85
2022-08-30T02:56:08.103Z,20.88
2022-08-30T02:58:42.943Z,16.62
2022-08-30T03:01:18.634Z,17.00
2022-08-30T03:03:52.166Z,20.32
2022-08-30T03:06:28.228Z,17.70
2022-08-30T03:09:01.831Z,17.12
2022-08-30T03:11:36.435Z,14.38
2022-08-30T03:14:09.776Z,22.60
2022-08-30T03:16:43.055Z,17.77
2022-08-30T03:19:16.349Z,19.07
2022-08-30T03:21:50.598Z,20.60
2022-08-30T03:24:24.154Z,24.70
2022-08-30T03:26:57.335Z,26.52
2022-08-30T03:29:31.781Z,21.87
2022-08-30T03:32:05.840Z,22.27
2022-08-30T03:34:39.972Z,17.07
2022-08-30T03:37:13.667Z,15.88
2022-08-30T03:39:47.266Z,16.02
2022-08-30T03:42:22.078Z,19.75
2022-08-30T03:44:57.080Z,17.55
2022-08-30T03:47:30.735Z,17.85
2022-08-30T03:50:05.209Z,19.45
2022-08-30T03:52:40.974Z,17.13
2022-08-30T03:55:15.422Z,16.55
2022-08-30T03:57:48.609Z,20.15
2022-08-30T04:00:24.307Z,23.07
2022-08-30T04:02:57.776Z,18.25
2022-08-30T04:05:35.141Z,21.85
2022-08-30T04:08:09.345Z,18.02
2022-08-30T04:10:42.536Z,20.62
2022-08-30T04:13:15.990Z,17.12
2022-08-30T04:15:49.396Z,21.95
2022-08-30T04:18:23.101Z,17.70
2022-08-30T04:20:56.288Z,21.95
2022-08-30T04:23:29.453Z,18.25
2022-08-30T04:26:02.673Z,18.42
2022-08-30T04:28:36.255Z,18.00
2022-08-30T04:31:13.419Z,28.05
2022-08-30T04:33:49.365Z,19.92
2022-08-30T04:36:27.141Z,17.67
2022-08-30T04:39:03.012Z,20.27
2022-08-30T04:41:40.788Z,20.45
2022-08-30T04:44:19.525Z,22.00
2022-08-30T04:46:52.219Z,18.00
2022-08-30T04:49:25.444Z,23.25
2022-08-30T04:51:59.380Z,15.55
2022-08-30T04:54:34.546Z,21.50
2022-08-30T04:57:09.934Z,24.95
2022-08-30T04:59:43.283Z,20.10
2022-08-30T05:02:16.554Z,21.23
2022-08-30T05:05:07.574Z,20.85
2022-08-30T05:07:41.613Z,17.17
2022-08-30T05:10:15.648Z,19.15
2022-08-30T05:12:49.099Z,22.95
2022-08-30T05:15:24.881Z,21.30
2022-08-30T05:18:01.072Z,24.12
2022-08-30T05:20:36.329Z,19.48
2022-08-30T05:23:12.287Z,22.00
2022-08-30T05:25:46.940Z,18.15
2022-08-30T05:28:24.238Z,21.50
2022-08-30T05:30:59.547Z,17.98
2022-08-30T05:33:38.821Z,22.50
2022-08-30T05:36:11.882Z,16.67
2022-08-30T05:38:47.853Z,21.17
2022-08-30T05:41:30.760Z,21.90
2022-08-30T05:44:06.433Z,18.50
2022-08-30T05:46:43.813Z,23.18
2022-08-30T05:49:37.858Z,16.07
2022-08-30T05:52:12.948Z,22.85
2022-08-30T05:54:46.699Z,22.98
2022-08-30T05:57:22.818Z,17.62
2022-08-30T05:59:56.159Z,19.67
2022-08-30T06:05:19.644Z,20.05
2022-08-30T06:07:53.170Z,21.70
2022-08-30T06:10:26.577Z,26.17
2022-08-30T06:13:01.882Z,18.05
2022-08-30T06:15:35.612Z,19.98
2022-08-30T06:18:09.141Z,22.37
2022-08-30T06:20:44.433Z,18.57
2022-08-30T06:23:18.691Z,25.97
2022-08-30T06:25:52.187Z,19.92
2022-08-30T06:28:25.438Z,24.60
2022-08-30T06:31:00.651Z,24.63
2022-08-30T06:33:33.992Z,23.83
2022-08-30T06:36:08.887Z,17.87
2022-08-30T06:38:43.109Z,27.02
2022-08-30T06:41:19.207Z,20.70
2022-08-30T06:43:52.904Z,16.40
2022-08-30T06:46:28.797Z,17.37
2022-08-30T06:49:03.269Z,20.90
2022-08-30T06:51:39.843Z,16.80
2022-08-30T06:54:15.156Z,20.40
2022-08-30T06:56:58.147Z,15.55
2022-08-30T06:59:23.899Z,20.70
2022-08-30T07:01:58.397Z,17.90
2022-08-30T07:04:31.750Z,16.80
2022-08-30T07:07:05.491Z,20.65
2022-08-30T07:09:41.709Z,19.87
2022-08-30T07:12:16.062Z,23.45
2022-08-30T07:14:49.966Z,20.02
2022-08-30T07:17:42.269Z,14.95
2022-08-30T07:20:18.674Z,14.63
2022-08-30T07:22:57.194Z,19.07
2022-08-30T07:25:30.806Z,19.00
2022-08-30T07:28:04.179Z,21.45
2022-08-30T07:30:38.576Z,21.35
2022-08-30T07:33:12.134Z,16.85
2022-08-30T07:35:45.509Z,16.20
2022-08-30T07:38:18.999Z,16.97
2022-08-30T07:40:53.134Z,17.37
2022-08-30T07:43:27.208Z,18.30
2022-08-30T07:46:05.457Z,18.48
2022-08-30T07:48:39.050Z,22.37
2022-08-30T07:51:18.357Z,18.20
2022-08-30T07:53:52.161Z,17.62
2022-08-30T07:56:26.478Z,19.10
2022-08-30T07:59:00.934Z,16.07
2022-08-30T08:04:16.541Z,15.38
2022-08-30T08:06:50.209Z,17.82
2022-08-30T08:09:23.549Z,15.00
2022-08-30T08:11:57.091Z,16.50
2022-08-30T08:14:30.418Z,14.75
2022-08-30T08:17:05.188Z,16.27
2022-08-30T08:19:38.374Z,18.82
2022-08-30T08:22:20.828Z,17.30
2022-08-30T08:24:47.544Z,19.70
2022-08-30T08:27:24.951Z,19.57
2022-08-30T08:29:58.522Z,16.42
2022-08-30T08:32:31.808Z,15.65
2022-08-30T08:35:05.423Z,16.77
2022-08-30T08:37:39.282Z,17.15
2022-08-30T08:40:17.111Z,13.98
2022-08-30T08:43:02.872Z,21.60
2022-08-30T08:45:49.452Z,17.52
2022-08-30T08:48:45.556Z,17.57
2022-08-30T08:51:24.784Z,15.58
2022-08-30T08:54:02.022Z,15.45
2022-08-30T08:56:38.014Z,16.23
2022-08-30T08:59:13.430Z,16.82
2022-08-30T09:01:48.063Z,13.22
2022-08-30T09:04:24.230Z,11.40
2022-08-30T09:07:01.121Z,17.30
2022-08-30T09:09:38.271Z,11.60
2022-08-30T09:12:15.281Z,14.10
2022-08-30T09:14:51.389Z,17.95
2022-08-30T09:17:26.506Z,16.40
2022-08-30T09:20:03.258Z,12.90
2022-08-30T09:22:39.574Z,14.00
2022-08-30T09:25:17.679Z,14.43
2022-08-30T09:27:54.108Z,13.72
2022-08-30T09:30:29.741Z,17.48
2022-08-30T09:33:05.453Z,16.87
2022-08-30T09:35:41.804Z,15.08
2022-08-30T09:38:20.249Z,12.68
2022-08-30T09:40:55.838Z,14.20
2022-08-30T09:43:31.263Z,11.80
2022-08-30T09:46:16.457Z,10.85
2022-08-30T09:48:48.872Z,11.22
2022-08-30T09:51:41.096Z,12.50
2022-08-30T09:54:21.158Z,12.43
2022-08-30T09:57:01.855Z,11.10
2022-08-30T09:59:46.796Z,11.90
2022-08-30T10:02:37.485Z,13.62
2022-08-30T10:05:14.186Z,15.50
2022-08-30T10:07:53.562Z,11.35
2022-08-30T10:10:30.949Z,13.75
2022-08-30T10:13:15.458Z,13.15
2022-08-30T10:15:51.984Z,11.80
2022-08-30T10:18:28.264Z,11.38
2022-08-30T10:21:06.667Z,14.40
2022-08-30T10:23:43.133Z,9.85
2022-08-30T10:28:55.545Z,8.95
2022-08-30T10:31:31.737Z,11.57
2022-08-30T10:34:08.801Z,13.58
2022-08-30T10:36:46.314Z,13.28
2022-08-30T10:39:23.423Z,10.50
2022-08-30T10:42:06.095Z,12.40
2022-08-30T10:44:44.549Z,10.18
2022-08-30T10:47:24.190Z,12.28
2022-08-30T10:50:04.559Z,12.95
2022-08-30T10:52:42.599Z,13.50
2022-08-30T10:55:22.289Z,11.45
2022-08-30T10:57:57.209Z,10.08
2022-08-30T11:00:35.050Z,11.30
2022-08-30T11:03:30.984Z,9.83
2022-08-30T11:06:12.795Z,9.43
2022-08-30T11:09:04.802Z,12.00
2022-08-30T11:11:48.496Z,9.48
2022-08-30T11:14:25.680Z,10.78
2022-08-30T11:17:03.152Z,11.83
2022-08-30T11:19:41.349Z,8.83
2022-08-30T11:22:18.568Z,12.23
2022-08-30T11:25:11.451Z,10.53
2022-08-30T11:27:49.609Z,13.83
2022-08-30T11:30:50.610Z,9.68
2022-08-30T11:37:09.576Z,9.25
2022-08-30T11:40:04.673Z,9.10
2022-08-30T11:42:42.996Z,9.83
2022-08-30T11:45:48.132Z,9.05
2022-08-30T11:48:55.145Z,10.20
2022-08-30T11:54:46.484Z,10.28
2022-08-30T11:57:24.779Z,10.23
2022-08-30T12:00:04.282Z,11.60
2022-08-30T12:05:59.598Z,15.70
2022-08-30T12:09:08.277Z,11.28
2022-08-30T12:12:10.206Z,13.38
2022-08-30T12:14:55.885Z,11.75
2022-08-30T12:17:53.591Z,15.08
2022-08-30T12:20:30.471Z,16.73
2022-08-30T12:23:13.461Z,17.67
2022-08-30T12:25:46.976Z,11.93
2022-08-30T12:28:24.625Z,10.32
2022-08-30T12:30:59.580Z,10.13
2022-08-30T12:33:40.359Z,10.10
2022-08-30T12:36:17.154Z,9.85
2022-08-30T12:38:51.690Z,11.03
2022-08-30T12:41:28.331Z,26.95
2022-08-30T12:44:03.482Z,17.75
2022-08-30T12:46:38.813Z,8.68
2022-08-30T12:49:14.799Z,10.10
2022-08-30T12:51:49.531Z,5.50
2022-08-30T12:54:25.274Z,8.93
2022-08-30T12:59:59.661Z,4.80
2022-08-30T13:02:33.123Z,6.40
2022-08-30T13:07:40.106Z,9.58
2022-08-30T13:10:20.054Z,6.25
2022-08-30T13:13:05.549Z,7.60
2022-08-30T13:15:43.751Z,9.53
2022-08-30T13:18:30.092Z,9.20
2022-08-30T13:21:25.613Z,9.00
2022-08-30T13:24:02.453Z,9.08
2022-08-30T13:26:37.795Z,7.83
2022-08-30T13:29:17.972Z,16.73
2022-08-30T13:31:51.561Z,9.43
2022-08-30T13:34:25.043Z,14.68
2022-08-30T13:37:00.028Z,11.88
2022-08-30T13:39:33.563Z,12.07
2022-08-30T13:48:43.483Z,12.82
2022-08-30T13:51:39.172Z,6.62
2022-08-30T13:54:12.608Z,8.95
2022-08-30T13:56:46.696Z,8.10
2022-08-30T13:59:22.295Z,10.08
2022-08-30T14:02:12.883Z,14.87
2022-08-30T14:04:32.974Z,13.58
2022-08-30T14:07:19.839Z,11.22
2022-08-30T14:09:42.075Z,11.03
2022-08-30T14:15:03.217Z,8.45
2022-08-30T14:17:38.651Z,9.58
2022-08-30T14:20:16.795Z,13.28
2022-08-30T14:22:49.339Z,11.38
2022-08-30T14:25:23.024Z,12.28
2022-08-30T14:27:58.502Z,10.15
2022-08-30T14:30:32.181Z,10.13
2022-08-30T14:33:06.961Z,10.72
2022-08-30T14:35:42.565Z,11.18
2022-08-30T14:38:16.413Z,10.70
2022-08-30T14:40:54.586Z,11.03
2022-08-30T14:43:32.319Z,13.55
2022-08-30T14:46:07.206Z,16.57
2022-08-30T14:48:43.063Z,12.15
2022-08-30T14:51:19.276Z,14.57
2022-08-30T14:57:19.398Z,14.35
2022-08-30T15:20:28.729Z,15.68
2022-08-30T15:23:22.975Z,12.73
2022-08-30T15:26:05.826Z,16.90
2022-08-30T15:29:12.327Z,14.63
2022-08-30T15:32:32.053Z,15.98
2022-08-30T15:35:52.959Z,14.38
2022-08-30T15:38:42.923Z,14.45
2022-08-30T15:41:23.495Z,11.60
2022-08-30T15:43:58.894Z,15.63
2022-08-30T15:46:34.876Z,21.57
2022-08-30T15:49:11.494Z,16.30
2022-08-30T15:51:47.532Z,13.45
2022-08-30T15:54:24.792Z,13.05
2022-08-30T15:57:01.702Z,15.25
2022-08-30T15:59:36.127Z,16.30
2022-08-30T16:02:11.467Z,17.90
2022-08-30T16:04:49.165Z,18.25
2022-08-30T16:07:25.451Z,16.17
2022-08-30T16:09:59.247Z,17.05
2022-08-30T16:12:37.215Z,23.12
2022-08-30T16:15:14.149Z,32.63
2022-08-30T16:18:05.072Z,14.35
2022-08-30T16:20:39.714Z,13.40
2022-08-30T16:23:13.432Z,15.72
2022-08-30T16:25:47.088Z,14.30
2022-08-30T16:28:20.814Z,19.45
2022-08-30T16:31:12.182Z,22.73
2022-08-30T16:33:41.157Z,18.25
2022-08-30T16:36:12.650Z,17.82
2022-08-30T16:38:46.299Z,22.10
2022-08-30T16:41:24.083Z,12.45
2022-08-30T16:44:03.644Z,18.23
2022-08-30T16:46:37.305Z,23.27
2022-08-30T16:49:14.769Z,14.60
2022-08-30T16:51:48.167Z,17.10
2022-08-30T16:54:24.297Z,17.73
2022-08-30T16:56:57.681Z,11.48
2022-08-30T16:59:31.059Z,17.23
2022-08-30T17:02:05.048Z,19.02
2022-08-30T17:04:38.517Z,17.57
2022-08-30T17:07:13.815Z,18.40
2022-08-30T17:09:47.842Z,24.47
2022-08-30T17:12:22.179Z,22.65
2022-08-30T17:14:58.101Z,20.17
2022-08-30T17:17:43.714Z,19.50
2022-08-30T17:20:24.071Z,16.42
2022-08-30T17:23:02.483Z,16.27
2022-08-30T17:25:41.183Z,16.90
2022-08-30T17:28:16.706Z,20.23
2022-08-30T17:30:57.362Z,25.82
2022-08-30T17:33:32.615Z,70.85
2022-08-30T17:36:09.004Z,32.73
2022-08-30T17:38:45.108Z,30.92
2022-08-30T17:41:20.900Z,35.33
2022-08-30T17:43:59.375Z,26.90
2022-08-30T17:46:47.182Z,22.87
2022-08-30T17:49:22.217Z,17.95
2022-08-30T17:51:57.156Z,27.13
2022-08-30T17:54:37.479Z,17.60
2022-08-30T17:57:13.224Z,22.13
2022-08-30T17:59:50.290Z,16.07
2022-08-30T18:02:30.263Z,14.73
2022-08-30T18:08:00.688Z,23.10
2022-08-30T18:10:34.707Z,21.30
2022-08-30T18:16:06.727Z,21.07
2022-08-30T18:18:52.629Z,20.48
2022-08-30T18:21:33.404Z,22.27
2022-08-30T18:24:08.636Z,16.62
2022-08-30T18:26:44.809Z,28.40
2022-08-30T18:29:26.296Z,15.45
2022-08-30T18:31:59.415Z,18.27
2022-08-30T18:34:38.245Z,11.33
2022-08-30T18:37:14.029Z,16.32
2022-08-30T18:42:23.113Z,16.85
2022-08-30T18:44:56.286Z,17.27
2022-08-30T18:47:29.919Z,13.32
2022-08-30T18:50:05.130Z,10.05
2022-08-30T18:52:38.871Z,11.20
2022-08-30T18:55:14.032Z,13.98
2022-08-30T18:57:49.228Z,11.90
2022-08-30T19:00:22.706Z,16.40
2022-08-30T19:02:55.972Z,23.60
2022-08-30T19:05:29.831Z,25.62
2022-08-30T19:08:03.860Z,11.70
2022-08-30T19:10:38.831Z,16.87
2022-08-30T19:13:13.722Z,32.55
2022-08-30T19:15:47.228Z,16.32
2022-08-30T19:18:21.201Z,14.53
2022-08-30T19:20:54.411Z,15.18
2022-08-30T19:23:34.089Z,14.38
2022-08-30T19:26:04.129Z,17.42
2022-08-30T19:28:38.151Z,16.05
2022-08-30T19:31:11.393Z,13.98
2022-08-30T19:33:44.759Z,15.05
2022-08-30T19:36:18.075Z,18.20
2022-08-30T19:38:51.432Z,16.05
2022-08-30T19:41:25.146Z,16.15
2022-08-30T19:44:01.246Z,15.88
2022-08-30T19:46:34.477Z,28.30
2022-08-30T19:49:10.651Z,19.48
2022-08-30T19:51:46.512Z,19.32
2022-08-30T19:54:20.311Z,17.30
2022-08-30T19:56:54.645Z,16.25
2022-08-30T19:59:28.054Z,13.75
2022-08-30T20:02:23.197Z,19.27
2022-08-30T20:04:58.174Z,14.20
2022-08-30T20:07:34.526Z,16.50
2022-08-30T20:10:10.975Z,11.97
2022-08-30T20:12:47.556Z,15.00
2022-08-30T20:15:20.776Z,17.55
2022-08-30T20:18:05.192Z,10.30
2022-08-30T20:20:29.782Z,11.55
2022-08-30T20:23:03.033Z,12.23
2022-08-30T20:25:38.110Z,11.55
2022-08-30T20:28:12.081Z,13.48
2022-08-30T20:30:45.541Z,10.63
2022-08-30T20:33:23.598Z,13.05
2022-08-30T20:36:02.188Z,11.20
2022-08-30T20:38:35.810Z,13.08
2022-08-30T20:41:16.868Z,9.90
2022-08-30T20:43:50.452Z,11.18
2022-08-30T20:46:23.906Z,13.05
2022-08-30T20:48:59.865Z,12.35
2022-08-30T20:51:33.284Z,10.88
2022-08-30T20:54:09.585Z,11.63
2022-08-30T20:56:43.225Z,8.40
2022-08-30T20:59:16.584Z,10.72
2022-08-30T21:01:50.151Z,15.65
2022-08-30T21:04:23.725Z,12.35
2022-08-30T21:06:58.063Z,13.20
2022-08-30T21:09:31.684Z,11.40
2022-08-30T21:12:09.913Z,9.25
2022-08-30T21:14:42.232Z,7.22
2022-08-30T21:17:18.041Z,9.73
2022-08-30T21:19:52.777Z,11.85
2022-08-30T21:22:28.798Z,9.93
2022-08-30T21:27:37.099Z,13.22
2022-08-30T21:30:12.803Z,9.70
2022-08-30T21:32:47.792Z,8.40
2022-08-30T21:35:40.333Z,11.45
2022-08-30T21:38:17.632Z,11.30
2022-08-30T21:40:51.283Z,8.40
2022-08-30T21:43:24.675Z,10.78
2022-08-30T21:45:58.090Z,14.18
2022-08-30T21:48:31.363Z,12.33
2022-08-30T21:51:09.259Z,9.40
2022-08-30T21:53:42.640Z,12.60
2022-08-30T21:56:21.651Z,9.33
2022-08-30T21:59:00.285Z,10.85
2022-08-30T22:01:34.470Z,13.25
2022-08-30T22:04:11.674Z,12.00
2022-08-30T22:06:50.623Z,14.33
2022-08-30T22:09:26.866Z,12.30
2022-08-30T22:12:03.358Z,12.78
2022-08-30T22:14:38.743Z,16.37
2022-08-30T22:17:12.103Z,14.47
2022-08-30T22:19:45.391Z,13.22
2022-08-30T22:22:20.216Z,13.13
2022-08-30T22:24:53.799Z,10.80
2022-08-30T22:27:28.418Z,13.20
2022-08-30T22:30:01.943Z,13.53
2022-08-30T22:32:35.204Z,10.08
2022-08-30T22:35:10.624Z,14.87
2022-08-30T22:37:47.675Z,10.45
2022-08-30T22:40:20.778Z,13.22
2022-08-30T22:42:54.267Z,11.65
2022-08-30T22:45:27.668Z,11.68
2022-08-30T22:48:01.050Z,11.12
2022-08-30T22:50:34.352Z,14.47
2022-08-30T22:53:07.788Z,12.23
2022-08-30T22:55:43.202Z,11.83
2022-08-30T22:58:18.225Z,14.20
2022-08-30T23:00:54.919Z,8.68
2022-08-30T23:03:26.697Z,11.18
2022-08-30T23:06:00.059Z,11.48
2022-08-30T23:08:33.212Z,14.03
2022-08-30T23:11:06.772Z,11.45
2022-08-30T23:13:43.783Z,10.05
2022-08-30T23:16:18.147Z,11.22
2022-08-30T23:18:51.991Z,10.88
2022-08-30T23:21:28.912Z,14.00
2022-08-30T23:24:21.491Z,14.45
2022-08-30T23:27:13.062Z,16.57
2022-08-30T23:30:04.199Z,15.20
2022-08-30T23:32:55.170Z,16.45
2022-08-30T23:35:47.153Z,18.90
2022-08-30T23:38:39.188Z,23.22
2022-08-30T23:41:33.976Z,22.10
2022-08-30T23:44:23.286Z,27.35
2022-08-30T23:47:14.424Z,25.55
2022-08-30T23:50:05.314Z,24.30
2022-08-30T23:52:56.521Z,25.20
2022-08-30T23:55:47.445Z,20.10
2022-08-30T23:58:38.386Z,21.55
